Time;durP1;ratioP1;P1;durP2;ratioP2;P2;SDS_P1;SDS_P2;PMS_P1;PMS_P2;Temp;Humidity;BMP_temperature;BMP_pressure;BME280_temperature;BME280_humidity;BME280_pressure;Samples;Min_cycle;Max_cycle;Signal;HPM_P1;HPM_P2
2022/04/08 00:02:12;;;;;;;15.68;2.70;;;;;;;3.87;100.00;99772.91;5110766;28;20055;-75
2022/04/08 00:04:37;;;;;;;13.93;2.90;;;;;;;3.99;100.00;99783.06;5108756;28;20395;-75
2022/04/08 00:07:03;;;;;;;10.60;1.67;;;;;;;4.05;100.00;99787.25;5110621;28;20043;-75
2022/04/08 00:09:28;;;;;;;13.95;2.90;;;;;;;4.13;100.00;99794.91;5112222;28;20029;-75
2022/04/08 00:11:55;;;;;;;11.05;1.90;;;;;;;4.19;100.00;99800.84;5113121;28;20019;-75
2022/04/08 00:14:20;;;;;;;11.40;2.50;;;;;;;4.22;100.00;99803.38;5110246;28;20027;-75
2022/04/08 00:16:46;;;;;;;10.88;2.10;;;;;;;4.25;100.00;99804.19;5101976;28;20032;-75
2022/04/08 00:19:11;;;;;;;11.45;2.60;;;;;;;4.31;100.00;99814.44;5095402;28;20027;-75
2022/04/08 00:21:36;;;;;;;11.88;2.17;;;;;;;4.33;100.00;99810.13;5108430;28;20110;-75
2022/04/08 00:24:02;;;;;;;14.35;3.00;;;;;;;4.43;100.00;99825.44;5104127;28;20054;-75
2022/04/08 00:26:28;;;;;;;11.73;2.92;;;;;;;4.50;99.91;99825.34;5108484;28;20020;-75
2022/04/08 00:28:53;;;;;;;14.43;2.88;;;;;;;4.46;100.00;99819.38;5111523;28;20030;-75
2022/04/08 00:31:18;;;;;;;14.73;3.13;;;;;;;4.35;100.00;99823.81;5110800;28;20024;-75
2022/04/08 00:33:43;;;;;;;10.18;2.05;;;;;;;4.26;100.00;99823.97;5110045;28;20077;-75
2022/04/08 00:36:09;;;;;;;10.73;2.28;;;;;;;4.16;100.00;99828.41;5107729;28;20020;-75
2022/04/08 00:38:34;;;;;;;7.88;2.03;;;;;;;4.03;100.00;99824.28;5106462;28;20024;-75
2022/04/08 00:40:59;;;;;;;15.88;2.63;;;;;;;3.97;100.00;99826.06;5104974;28;20054;-75
2022/04/08 00:43:43;;;;;;;10.80;2.30;;;;;;;3.89;100.00;99822.75;5096333;28;20040;-75
2022/04/08 00:46:11;;;;;;;18.30;2.95;;;;;;;3.97;100.00;99845.84;5102642;28;20035;-75
2022/04/08 00:48:37;;;;;;;16.05;2.67;;;;;;;4.03;100.00;99843.19;5110811;28;20091;-75
2022/04/08 00:51:05;;;;;;;14.68;2.58;;;;;;;4.07;100.00;99844.00;5109073;28;20480;-75
2022/04/08 00:53:31;;;;;;;18.40;3.10;;;;;;;4.21;100.00;99862.72;5110572;28;20093;-75
2022/04/08 00:55:57;;;;;;;14.55;2.00;;;;;;;4.31;100.00;99856.56;5106747;28;20020;-75
2022/04/08 00:58:23;;;;;;;12.77;2.42;;;;;;;4.29;100.00;99848.00;5104829;28;20115;-75
2022/04/08 01:00:48;;;;;;;14.32;2.78;;;;;;;4.35;99.04;99853.09;5109878;28;20386;-75
2022/04/08 01:03:14;;;;;;;9.80;2.47;;;;;;;4.33;98.21;99862.56;5112203;28;20023;-75
2022/04/08 01:05:39;;;;;;;13.30;2.60;;;;;;;4.33;98.02;99859.13;5106313;28;20035;-75
2022/04/08 01:08:10;;;;;;;13.68;2.47;;;;;;;4.29;98.57;99871.22;5110664;28;20030;-75
2022/04/08 01:10:35;;;;;;;11.50;2.40;;;;;;;4.27;98.59;99869.53;5109761;28;20857;-75
2022/04/08 01:13:00;;;;;;;13.05;2.97;;;;;;;4.25;98.79;99882.47;5108614;28;20039;-75
2022/04/08 01:15:25;;;;;;;12.68;2.20;;;;;;;4.30;96.95;99880.66;5099282;28;20110;-75
2022/04/08 01:17:51;;;;;;;9.75;2.22;;;;;;;4.35;97.56;99888.34;5110436;28;20069;-75
2022/04/08 01:20:17;;;;;;;13.38;2.65;;;;;;;4.37;96.79;99887.44;5108061;28;20494;-75
2022/04/08 01:22:42;;;;;;;12.13;2.55;;;;;;;4.39;96.07;99877.97;5111947;28;20024;-75
2022/04/08 01:25:10;;;;;;;15.50;2.85;;;;;;;4.39;96.46;99893.47;5105732;28;20027;-75
2022/04/08 01:27:36;;;;;;;15.82;2.67;;;;;;;4.34;97.51;99896.97;5107869;28;20024;-75
2022/04/08 01:30:03;;;;;;;11.55;2.30;;;;;;;4.23;97.27;99895.38;5109994;28;20398;-75
2022/04/08 01:32:28;;;;;;;15.15;2.80;;;;;;;4.10;98.52;99898.13;5110966;28;20483;-75
2022/04/08 01:34:54;;;;;;;20.38;3.10;;;;;;;3.91;99.71;99903.50;5107876;28;20038;-75
2022/04/08 01:37:20;;;;;;;11.13;2.58;;;;;;;3.84;100.00;99907.03;5108046;28;20423;-75
2022/04/08 01:39:45;;;;;;;14.68;2.85;;;;;;;3.88;100.00;99905.25;5103221;28;20024;-75
2022/04/08 01:42:11;;;;;;;13.43;2.25;;;;;;;3.91;100.00;99903.50;5099474;28;20040;-75
2022/04/08 01:44:37;;;;;;;16.35;2.65;;;;;;;3.98;100.00;99907.72;5090621;28;20064;-75
2022/04/08 01:47:02;;;;;;;11.20;2.03;;;;;;;4.06;99.94;99906.78;5106964;28;20051;-75
2022/04/08 01:49:28;;;;;;;18.80;2.38;;;;;;;4.16;100.00;99903.22;5111790;28;20034;-75
2022/04/08 01:51:54;;;;;;;14.02;2.92;;;;;;;4.22;99.26;99905.72;5111411;28;20060;-75
2022/04/08 01:54:19;;;;;;;10.50;2.60;;;;;;;4.23;99.03;99904.84;5110249;28;20065;-75
2022/04/08 01:56:44;;;;;;;17.85;3.08;;;;;;;4.22;98.91;99906.59;5107418;28;20032;-75
2022/04/08 01:59:09;;;;;;;15.15;2.55;;;;;;;4.19;98.77;99916.09;5097200;28;20027;-74
2022/04/08 02:01:35;;;;;;;13.65;2.53;;;;;;;4.10;98.91;99914.47;5102478;28;20056;-75
2022/04/08 02:04:00;;;;;;;20.38;3.55;;;;;;;3.99;99.49;99917.19;5107961;28;20042;-75
2022/04/08 02:06:25;;;;;;;14.73;3.42;;;;;;;3.93;99.62;99935.28;5103723;28;20072;-75
2022/04/08 02:08:53;;;;;;;14.15;2.50;;;;;;;3.89;99.89;99925.00;5107475;28;20364;-75
2022/04/08 02:11:19;;;;;;;12.15;3.10;;;;;;;3.78;99.99;99925.13;5105166;28;20027;-75
2022/04/08 02:13:44;;;;;;;12.68;2.65;;;;;;;3.73;100.00;99929.50;5097937;28;20032;-75
2022/04/08 02:16:09;;;;;;;15.90;2.70;;;;;;;3.62;100.00;99931.31;5110694;28;20032;-75
2022/04/08 02:18:34;;;;;;;14.13;2.88;;;;;;;3.56;100.00;99933.94;5110553;28;20046;-75
2022/04/08 02:21:00;;;;;;;11.90;2.42;;;;;;;3.46;100.00;99928.00;5104844;28;20968;-75
2022/04/08 02:23:26;;;;;;;11.75;2.90;;;;;;;3.44;100.00;99932.34;5099203;28;20391;-75
2022/04/08 02:25:51;;;;;;;16.35;3.22;;;;;;;3.41;100.00;99943.53;5099667;28;20028;-75
2022/04/08 02:28:16;;;;;;;14.13;3.33;;;;;;;3.34;100.00;99947.03;5096601;28;20116;-75
2022/04/08 02:30:42;;;;;;;15.05;2.50;;;;;;;3.27;100.00;99935.91;5110261;28;20464;-75
2022/04/08 02:33:07;;;;;;;15.20;2.75;;;;;;;3.31;100.00;99941.91;5111934;28;20031;-75
2022/04/08 02:35:32;;;;;;;15.73;2.40;;;;;;;3.32;100.00;99947.91;5106713;28;20031;-75
2022/04/08 02:37:58;;;;;;;11.30;2.92;;;;;;;3.28;100.00;99947.94;5110511;28;20031;-75
2022/04/08 02:40:23;;;;;;;9.48;2.33;;;;;;;3.28;100.00;99947.06;5111254;27;20035;-75
2022/04/08 02:42:48;;;;;;;14.38;3.22;;;;;;;3.27;100.00;99950.53;5101878;28;20027;-75
2022/04/08 02:45:14;;;;;;;16.75;2.97;;;;;;;3.27;100.00;99951.38;5112649;28;20092;-75
2022/04/08 02:47:41;;;;;;;13.55;2.88;;;;;;;3.26;100.00;99948.78;5112584;28;20027;-75
2022/04/08 02:50:06;;;;;;;12.18;2.80;;;;;;;3.22;100.00;99953.13;5110907;28;20168;-75
2022/04/08 02:52:32;;;;;;;14.30;3.10;;;;;;;3.20;100.00;99948.84;5113886;28;20482;-75
2022/04/08 02:54:58;;;;;;;15.77;2.78;;;;;;;3.17;100.00;99954.00;5113884;28;20040;-75
2022/04/08 02:57:23;;;;;;;10.02;2.92;;;;;;;3.09;100.00;99956.66;5105560;28;20042;-75
2022/04/08 02:59:52;;;;;;;12.30;3.03;;;;;;;3.04;100.00;99945.50;5110025;28;20024;-75
2022/04/08 03:02:18;;;;;;;14.38;3.00;;;;;;;2.98;100.00;99956.75;5104201;28;20051;-75
2022/04/08 03:04:43;;;;;;;13.60;2.72;;;;;;;2.91;100.00;99952.50;5113832;28;20098;-74
2022/04/08 03:07:08;;;;;;;11.82;2.90;;;;;;;2.84;100.00;99955.94;5109546;28;20052;-75
2022/04/08 03:09:33;;;;;;;9.85;2.75;;;;;;;2.80;100.00;99962.00;5093897;28;20486;-75
2022/04/08 03:11:59;;;;;;;12.02;2.80;;;;;;;2.74;100.00;99954.31;5093209;28;20036;-75
2022/04/08 03:14:24;;;;;;;8.55;2.70;;;;;;;2.70;100.00;99960.34;5094131;28;20020;-75
2022/04/08 03:16:50;;;;;;;13.98;2.70;;;;;;;2.66;100.00;99961.22;5109181;28;20035;-75
2022/04/08 03:19:18;;;;;;;14.73;2.80;;;;;;;2.60;100.00;99956.09;5108079;28;20106;-75
2022/04/08 03:21:43;;;;;;;12.23;2.75;;;;;;;2.53;100.00;99956.13;5114141;28;20023;-75
2022/04/08 03:24:10;;;;;;;15.90;3.17;;;;;;;2.51;100.00;99965.56;5108349;28;20027;-75
2022/04/08 03:26:35;;;;;;;13.55;3.38;;;;;;;2.46;100.00;99971.63;5113093;28;20023;-75
2022/04/08 03:29:01;;;;;;;11.90;2.80;;;;;;;2.44;100.00;99970.75;5112384;28;20110;-75
2022/04/08 03:31:26;;;;;;;11.00;2.83;;;;;;;2.43;100.00;99977.63;5111544;28;20059;-75
2022/04/08 03:33:51;;;;;;;15.90;2.63;;;;;;;2.43;100.00;99975.03;5110617;28;20019;-75
2022/04/08 03:36:16;;;;;;;14.93;2.92;;;;;;;2.33;100.00;99968.22;5112171;28;20471;-75
2022/04/08 03:38:42;;;;;;;10.60;3.05;;;;;;;2.39;100.00;99980.19;5109718;28;20019;-75
2022/04/08 03:41:07;;;;;;;16.42;3.30;;;;;;;2.37;100.00;99990.50;5112970;28;20544;-75
2022/04/08 03:43:34;;;;;;;8.68;3.22;;;;;;;2.34;100.00;99982.78;5112922;28;20039;-75
2022/04/08 03:46:00;;;;;;;10.57;3.70;;;;;;;2.35;100.00;99984.50;5113139;28;20024;-75
2022/04/08 03:48:25;;;;;;;11.43;3.25;;;;;;;2.34;100.00;99977.66;5108293;28;20094;-75
2022/04/08 03:50:50;;;;;;;14.50;4.03;;;;;;;2.31;100.00;99986.22;5112782;28;20047;-75
2022/04/08 03:53:16;;;;;;;11.65;3.47;;;;;;;2.27;100.00;99979.41;5109486;28;20027;-75
2022/04/08 03:55:41;;;;;;;12.50;3.33;;;;;;;2.28;100.00;99988.81;5110581;27;20027;-74
2022/04/08 03:58:08;;;;;;;8.43;3.38;;;;;;;2.28;100.00;99995.66;5102640;28;20023;-75
2022/04/08 04:00:33;;;;;;;9.43;3.45;;;;;;;2.24;100.00;99988.84;5111243;28;20047;-75
2022/04/08 04:02:58;;;;;;;12.27;3.63;;;;;;;2.23;100.00;99992.28;5112447;28;20036;-75
2022/04/08 04:05:23;;;;;;;16.40;3.33;;;;;;;2.22;100.00;99993.13;5109770;28;20077;-75
2022/04/08 04:07:49;;;;;;;9.20;3.63;;;;;;;2.22;100.00;99995.69;5110544;28;20383;-74
2022/04/08 04:10:14;;;;;;;13.70;3.80;;;;;;;2.22;100.00;99981.09;5111409;28;20023;-75
2022/04/08 04:12:41;;;;;;;10.15;4.10;;;;;;;2.16;100.00;99975.13;5112579;28;20430;-75
2022/04/08 04:15:08;;;;;;;10.63;3.92;;;;;;;2.19;100.00;99993.13;5110954;28;20069;-75
2022/04/08 04:17:33;;;;;;;11.48;4.03;;;;;;;2.14;100.00;99987.16;5103179;28;20122;-75
2022/04/08 04:19:58;;;;;;;10.55;4.60;;;;;;;2.10;100.00;99987.16;5107346;28;20107;-75
2022/04/08 04:22:24;;;;;;;9.98;4.20;;;;;;;2.11;100.00;99985.44;5095058;28;20067;-75
2022/04/08 04:24:49;;;;;;;12.73;4.28;;;;;;;2.07;100.00;99974.31;5106509;28;20133;-74
2022/04/08 04:27:14;;;;;;;13.13;4.55;;;;;;;2.05;100.00;99980.31;5109483;28;20031;-74
2022/04/08 04:29:39;;;;;;;14.25;4.97;;;;;;;2.01;100.00;99971.75;5105753;28;20035;-74
2022/04/08 04:32:06;;;;;;;11.43;5.30;;;;;;;2.03;100.00;99980.34;5113264;28;20059;-74
2022/04/08 04:34:33;;;;;;;14.07;4.85;;;;;;;2.02;100.00;99983.75;5103729;28;20055;-75
2022/04/08 04:36:58;;;;;;;15.32;5.75;;;;;;;2.02;100.00;99986.31;5109728;28;20024;-74
2022/04/08 04:39:24;;;;;;;12.35;5.22;;;;;;;2.04;100.00;99987.19;5101896;28;20024;-74
2022/04/08 04:41:49;;;;;;;17.85;5.68;;;;;;;2.02;100.00;99988.03;5108397;28;20049;-74
2022/04/08 04:44:14;;;;;;;17.95;5.55;;;;;;;1.99;100.00;99991.47;5111522;28;20027;-75
2022/04/08 04:46:40;;;;;;;14.27;5.82;;;;;;;1.98;100.00;99997.47;5103765;28;20039;-74
2022/04/08 04:49:05;;;;;;;16.92;6.60;;;;;;;1.94;100.00;99994.91;5100051;28;20042;-74
2022/04/08 04:51:30;;;;;;;13.18;5.88;;;;;;;1.95;100.00;99987.19;5112281;28;20052;-74
2022/04/08 04:53:57;;;;;;;20.00;8.25;;;;;;;1.97;100.00;99994.91;5111664;28;20035;-75
2022/04/08 04:56:22;;;;;;;19.02;9.50;;;;;;;1.97;100.00;99993.19;5110087;28;20098;-74
2022/04/08 04:58:48;;;;;;;19.65;8.45;;;;;;;1.96;100.00;99994.06;5098777;28;20130;-74
2022/04/08 05:01:13;;;;;;;20.35;9.90;;;;;;;1.94;100.00;99990.63;5110948;28;20062;-74
2022/04/08 05:03:38;;;;;;;20.60;8.88;;;;;;;1.91;100.00;99985.50;5109181;28;20035;-74
2022/04/08 05:06:03;;;;;;;15.80;8.95;;;;;;;1.90;100.00;99996.66;5109412;28;20493;-74
2022/04/08 05:08:29;;;;;;;18.30;9.10;;;;;;;1.88;100.00;99988.06;5110158;28;20097;-74
2022/04/08 05:10:54;;;;;;;20.25;8.65;;;;;;;1.87;100.00;99983.78;5111287;28;20016;-74
2022/04/08 05:13:19;;;;;;;16.08;8.88;;;;;;;1.85;100.00;99985.50;5108736;28;20051;-74
2022/04/08 05:15:45;;;;;;;18.83;9.50;;;;;;;1.81;100.00;99984.66;5101650;28;20035;-74
2022/04/08 05:18:11;;;;;;;17.92;9.95;;;;;;;1.82;100.00;99980.38;5108102;28;20028;-74
2022/04/08 05:20:36;;;;;;;16.85;9.90;;;;;;;1.82;100.00;99986.34;5095350;28;20035;-74
2022/04/08 05:23:02;;;;;;;19.15;10.05;;;;;;;1.87;100.00;99988.94;5107781;28;20023;-74
2022/04/08 05:25:27;;;;;;;18.98;10.27;;;;;;;1.91;100.00;99979.50;5108910;28;20036;-74
2022/04/08 05:27:53;;;;;;;21.15;10.63;;;;;;;1.96;100.00;99994.06;5109910;28;20034;-74
2022/04/08 05:30:18;;;;;;;29.42;11.57;;;;;;;2.01;100.00;99986.31;5110076;28;20027;-74
2022/04/08 05:32:46;;;;;;;25.33;12.45;;;;;;;2.10;100.00;99978.59;5109875;28;20383;-74
2022/04/08 05:35:14;;;;;;;20.00;11.25;;;;;;;2.17;100.00;99982.84;5107328;28;20062;-74
2022/04/08 05:37:42;;;;;;;24.92;11.82;;;;;;;2.24;100.00;99983.69;5109022;28;20341;-74
2022/04/08 05:40:14;;;;;;;26.95;11.98;;;;;;;2.28;100.00;99975.09;5108994;28;20102;-75
2022/04/08 05:42:42;;;;;;;24.77;12.82;;;;;;;2.31;100.00;99975.09;5108911;28;20066;-74
2022/04/08 05:45:08;;;;;;;26.35;12.60;;;;;;;2.34;100.00;99967.38;5110595;28;20028;-74
2022/04/08 05:47:34;;;;;;;22.55;12.45;;;;;;;2.42;100.00;99977.63;5111779;28;20030;-74
2022/04/08 05:50:00;;;;;;;25.10;13.30;;;;;;;2.48;100.00;99975.88;5108347;28;20074;-74
2022/04/08 05:52:26;;;;;;;26.80;12.73;;;;;;;2.52;100.00;99964.72;5108693;28;20040;-75
2022/04/08 05:54:51;;;;;;;25.33;11.93;;;;;;;2.57;100.00;99956.97;5109924;28;20023;-74
2022/04/08 05:57:19;;;;;;;24.60;13.13;;;;;;;2.58;100.00;99953.53;5103574;28;20071;-74
2022/04/08 05:59:45;;;;;;;25.55;12.65;;;;;;;2.56;100.00;99950.97;5103886;28;20031;-74
2022/04/08 06:02:10;;;;;;;20.02;12.40;;;;;;;2.56;100.00;99950.97;5109927;28;20035;-74
2022/04/08 06:04:35;;;;;;;22.48;11.93;;;;;;;2.61;100.00;99952.66;5107130;28;20031;-74
2022/04/08 06:07:00;;;;;;;24.50;13.15;;;;;;;2.60;100.00;99950.97;5109559;28;20062;-74
2022/04/08 06:09:26;;;;;;;22.88;12.07;;;;;;;2.69;100.00;99948.34;5095468;28;20032;-74
2022/04/08 06:11:51;;;;;;;20.50;11.75;;;;;;;2.75;100.00;99953.47;5093941;28;20125;-74
2022/04/08 06:14:16;;;;;;;24.48;12.02;;;;;;;2.81;100.00;99950.81;5110261;28;20494;-74
2022/04/08 06:16:42;;;;;;;20.77;11.35;;;;;;;2.90;100.00;99955.91;5114786;28;20034;-74
2022/04/08 06:19:07;;;;;;;22.17;11.75;;;;;;;3.00;100.00;99961.84;5112429;28;20463;-75
2022/04/08 06:21:33;;;;;;;19.38;11.05;;;;;;;2.98;100.00;99949.00;5109041;28;20102;-75
2022/04/08 06:23:58;;;;;;;15.85;10.57;;;;;;;3.10;100.00;99960.06;5114638;28;20023;-75
2022/04/08 06:26:23;;;;;;;16.80;9.20;;;;;;;3.09;100.00;99948.09;5097088;28;20109;-75
2022/04/08 06:28:48;;;;;;;19.67;9.90;;;;;;;3.18;100.00;99955.75;5113711;28;20020;-75
2022/04/08 06:31:14;;;;;;;19.48;9.63;;;;;;;3.24;100.00;99956.56;5113045;28;20471;-75
2022/04/08 06:33:39;;;;;;;16.13;9.13;;;;;;;3.33;100.00;99970.22;5110697;28;20081;-74
2022/04/08 06:36:04;;;;;;;15.77;9.57;;;;;;;3.40;100.00;99956.41;5112760;28;20100;-75
2022/04/08 06:38:30;;;;;;;17.77;9.05;;;;;;;3.59;100.00;99949.38;5107548;28;20047;-75
2022/04/08 06:40:55;;;;;;;17.02;8.82;;;;;;;3.74;100.00;99944.09;5103178;28;20368;-74
2022/04/08 06:43:20;;;;;;;16.10;9.35;;;;;;;3.99;100.00;99942.13;5107687;28;20047;-75
2022/04/08 06:45:46;;;;;;;14.43;8.82;;;;;;;4.22;100.00;99944.44;5098511;28;20463;-74
2022/04/08 06:48:11;;;;;;;13.40;8.38;;;;;;;4.41;100.00;99934.72;5108428;28;20028;-75
2022/04/08 06:50:37;;;;;;;17.50;9.23;;;;;;;4.57;100.00;99933.63;5107062;27;20123;-75
2022/04/08 06:53:03;;;;;;;11.70;7.60;;;;;;;4.67;100.00;99927.47;5109425;28;20062;-75
2022/04/08 06:55:31;;;;;;;13.95;8.20;;;;;;;4.70;99.10;99930.00;5108408;28;20038;-75
2022/04/08 06:57:58;;;;;;;11.20;7.05;;;;;;;4.79;98.80;99931.63;5112048;28;20403;-75
2022/04/08 07:00:24;;;;;;;11.25;7.95;;;;;;;4.87;98.72;99929.78;5114676;28;20024;-75
2022/04/08 07:02:49;;;;;;;15.30;7.18;;;;;;;4.98;97.76;99927.03;5113667;28;20042;-74
2022/04/08 07:05:14;;;;;;;11.70;6.30;;;;;;;5.07;98.47;99932.06;5117986;27;20019;-74
2022/04/08 07:07:40;;;;;;;11.27;6.70;;;;;;;5.17;96.76;99937.94;5114527;27;20091;-75
2022/04/08 07:10:06;;;;;;;17.48;6.88;;;;;;;5.18;95.73;99936.22;5103334;28;20028;-76
2022/04/08 07:12:32;;;;;;;11.50;6.82;;;;;;;5.25;97.04;99936.09;5095809;28;20036;-76
2022/04/08 07:14:58;;;;;;;14.98;7.32;;;;;;;5.37;95.89;99927.28;5109844;27;20475;-76
2022/04/08 07:17:34;;;;;;;12.50;6.78;;;;;;;5.49;94.77;99928.78;5101971;28;20081;-76
2022/04/08 07:19:59;;;;;;;11.85;5.93;;;;;;;5.58;94.43;99923.47;5093925;28;20052;-76
2022/04/08 07:22:26;;;;;;;12.52;6.22;;;;;;;5.66;93.82;99924.19;5096958;28;20490;-75
2022/04/08 07:24:52;;;;;;;13.77;5.80;;;;;;;5.75;93.50;99923.16;5109613;28;20138;-76
2022/04/08 07:27:19;;;;;;;9.18;6.32;;;;;;;5.83;93.68;99927.31;5101645;28;20106;-75
2022/04/08 07:29:45;;;;;;;10.52;5.75;;;;;;;5.89;90.68;99918.59;5098789;27;20027;-75
2022/04/08 07:32:10;;;;;;;9.23;5.90;;;;;;;5.92;91.91;99915.97;5111069;28;20023;-76
2022/04/08 07:34:36;;;;;;;9.07;6.20;;;;;;;5.96;90.53;99917.63;5114137;28;20368;-75
2022/04/08 07:37:04;;;;;;;12.02;6.07;;;;;;;5.98;91.88;99915.00;5110860;28;20487;-76
2022/04/08 07:39:30;;;;;;;13.55;6.43;;;;;;;6.08;88.36;99913.94;5113207;28;20096;-75
2022/04/08 07:41:56;;;;;;;10.02;5.20;;;;;;;6.14;88.90;99910.38;5112766;28;20031;-74
2022/04/08 07:44:21;;;;;;;11.70;6.20;;;;;;;6.15;89.10;99914.66;5112892;28;20027;-74
2022/04/08 07:46:47;;;;;;;7.82;5.50;;;;;;;6.18;88.21;99910.31;5112552;27;20054;-75
2022/04/08 07:49:12;;;;;;;9.38;5.32;;;;;;;6.25;87.03;99909.28;5114538;27;20024;-74
2022/04/08 07:51:37;;;;;;;12.85;6.03;;;;;;;6.28;86.56;99906.63;5109104;27;20036;-75
2022/04/08 07:54:02;;;;;;;10.23;5.80;;;;;;;6.37;86.39;99909.91;5111783;27;20549;-74
2022/04/08 07:56:28;;;;;;;8.35;4.70;;;;;;;6.38;85.45;99904.72;5125878;27;20029;-74
2022/04/08 07:58:53;;;;;;;10.38;5.40;;;;;;;6.40;86.04;99905.50;5133368;27;20038;-74
2022/04/08 08:01:19;;;;;;;11.52;6.00;;;;;;;6.50;88.07;99904.41;5134035;27;20023;-74
2022/04/08 08:03:47;;;;;;;9.48;5.35;;;;;;;6.57;87.49;99903.44;5133736;27;20031;-74
2022/04/08 08:06:12;;;;;;;8.98;5.65;;;;;;;6.67;85.26;99904.06;5112655;27;20540;-72
2022/04/08 08:08:37;;;;;;;15.05;5.47;;;;;;;6.70;84.92;99892.78;5113868;27;20024;-74
2022/04/08 08:11:11;;;;;;;10.65;5.03;;;;;;;6.75;83.37;99889.19;5113420;28;20115;-74
2022/04/08 08:13:36;;;;;;;11.60;4.70;;;;;;;6.80;82.72;99899.44;5104591;28;20089;-74
2022/04/08 08:16:01;;;;;;;9.82;5.43;;;;;;;6.86;84.22;99895.88;5117287;27;20486;-74
2022/04/08 08:18:26;;;;;;;8.88;5.10;;;;;;;6.94;82.61;99891.38;5114302;27;20534;-73
2022/04/08 08:20:52;;;;;;;10.80;5.93;;;;;;;7.10;83.93;99903.06;5111337;28;20031;-73
2022/04/08 08:23:17;;;;;;;9.50;5.25;;;;;;;7.18;81.28;99905.47;5108706;28;20037;-73
2022/04/08 08:25:44;;;;;;;7.05;4.65;;;;;;;7.17;80.26;99904.63;5112230;28;20031;-73
2022/04/08 08:28:09;;;;;;;9.02;4.95;;;;;;;7.18;80.19;99901.13;5110694;28;20020;-74
2022/04/08 08:30:36;;;;;;;9.88;5.55;;;;;;;7.26;79.50;99895.78;5110910;28;20035;-74
2022/04/08 08:33:04;;;;;;;6.55;4.20;;;;;;;7.31;77.11;99886.13;5110750;28;20133;-74
2022/04/08 08:35:30;;;;;;;7.88;4.07;;;;;;;7.26;75.78;99886.25;5110628;28;20030;-74
2022/04/08 08:37:56;;;;;;;9.90;5.03;;;;;;;7.27;77.21;99877.56;5112424;28;20347;-74
2022/04/08 08:40:21;;;;;;;7.60;3.88;;;;;;;7.41;76.59;99871.19;5106309;28;20391;-73
2022/04/08 08:42:47;;;;;;;8.82;3.92;;;;;;;7.40;75.51;99859.13;5112147;28;20072;-74
2022/04/08 08:45:14;;;;;;;9.27;4.63;;;;;;;7.55;75.40;99866.47;5112733;28;20112;-73
2022/04/08 08:47:40;;;;;;;10.10;5.03;;;;;;;7.59;76.51;99855.16;5116052;27;20045;-74
2022/04/08 08:50:07;;;;;;;8.68;4.38;;;;;;;7.63;75.84;99845.53;5125537;27;20039;-74
2022/04/08 08:52:32;;;;;;;11.45;5.28;;;;;;;7.76;73.60;99846.91;5133210;27;20156;-74
2022/04/08 08:54:59;;;;;;;10.80;4.72;;;;;;;7.84;74.40;99836.28;5132350;27;20023;-74
2022/04/08 08:57:24;;;;;;;9.23;4.10;;;;;;;7.91;71.41;99837.81;5129511;27;20094;-74
2022/04/08 08:59:52;;;;;;;5.95;4.53;;;;;;;7.99;74.81;99835.88;5112437;28;20474;-74
2022/04/08 09:02:19;;;;;;;9.30;4.50;;;;;;;8.07;72.23;99827.84;5111812;28;20035;-74
2022/04/08 09:04:45;;;;;;;10.07;4.40;;;;;;;8.19;70.67;99836.13;5101885;28;20020;-74
2022/04/08 09:07:28;;;;;;;9.38;4.22;;;;;;;8.23;72.42;99828.25;5091995;28;20028;-74
2022/04/08 09:09:55;;;;;;;9.45;3.92;;;;;;;8.20;69.53;99824.84;5102994;27;20038;-74
2022/04/08 09:12:29;;;;;;;7.32;4.00;;;;;;;8.20;71.41;99822.25;5112206;28;20027;-74
2022/04/08 09:14:58;;;;;;;7.82;3.70;;;;;;;8.26;68.76;99822.97;5112367;28;20024;-74
2022/04/08 09:17:28;;;;;;;7.10;3.60;;;;;;;8.36;68.07;99825.22;5111525;28;20030;-74
2022/04/08 09:19:54;;;;;;;7.82;3.97;;;;;;;8.53;68.28;99832.53;5112129;28;20107;-74
2022/04/08 09:22:21;;;;;;;9.00;4.03;;;;;;;8.56;67.85;99827.25;5096718;28;20585;-74
2022/04/08 09:24:46;;;;;;;6.63;3.70;;;;;;;8.61;70.85;99827.97;5090999;28;20115;-74
2022/04/08 09:27:12;;;;;;;7.40;3.88;;;;;;;8.77;66.98;99828.31;5091712;28;20093;-74
2022/04/08 09:29:43;;;;;;;9.00;4.47;;;;;;;8.79;66.18;99826.50;5091692;28;20024;-74
2022/04/08 09:32:10;;;;;;;8.95;3.60;;;;;;;8.68;67.19;99831.22;5092118;28;20028;-74
2022/04/08 09:34:37;;;;;;;8.23;3.70;;;;;;;8.60;68.72;99822.78;5109987;28;20027;-74
2022/04/08 09:37:15;;;;;;;7.97;3.65;;;;;;;8.56;65.72;99832.44;5111579;28;20130;-74
2022/04/08 09:40:03;;;;;;;8.25;3.95;;;;;;;8.55;69.89;99827.31;5092988;28;20024;-74
2022/04/08 09:42:43;;;;;;;11.40;3.70;;;;;;;8.60;69.29;99817.59;5091452;28;20016;-73
2022/04/08 09:45:09;;;;;;;12.65;4.03;;;;;;;8.70;67.40;99823.34;5105783;28;20024;-74
2022/04/08 09:47:35;;;;;;;6.40;3.85;;;;;;;8.70;66.05;99825.94;5116194;28;20023;-73
2022/04/08 09:50:00;;;;;;;5.80;3.45;;;;;;;8.66;67.84;99814.81;5115979;28;20052;-74
2022/04/08 09:52:26;;;;;;;7.72;3.65;;;;;;;8.68;66.20;99829.47;5117229;27;20110;-74
2022/04/08 09:54:53;;;;;;;7.90;3.83;;;;;;;8.72;66.46;99829.38;5128046;27;20050;-73
2022/04/08 09:57:18;;;;;;;6.63;3.63;;;;;;;8.75;65.10;99824.06;5104922;28;20478;-73
2022/04/08 09:59:46;;;;;;;9.27;4.25;;;;;;;8.80;65.25;99824.78;5123175;27;20027;-74
2022/04/08 10:02:15;;;;;;;6.90;3.70;;;;;;;8.82;65.05;99825.56;5119544;27;20051;-73
2022/04/08 10:04:42;;;;;;;15.60;4.00;;;;;;;8.90;66.43;99819.22;5117220;27;20016;-74
2022/04/08 10:07:08;;;;;;;11.18;4.03;;;;;;;8.92;64.01;99824.38;5115329;28;20096;-73
2022/04/08 10:09:44;;;;;;;7.60;3.58;;;;;;;8.96;65.97;99814.72;5115805;28;20019;-74
2022/04/08 10:12:21;;;;;;;8.35;3.58;;;;;;;9.19;64.58;99817.41;5094865;28;20032;-74
2022/04/08 10:14:58;;;;;;;11.63;4.05;;;;;;;9.30;63.61;99822.25;5101777;28;20111;-75
2022/04/08 10:17:24;;;;;;;9.15;3.58;;;;;;;9.41;63.79;99819.25;5105421;28;20032;-74
2022/04/08 10:19:49;;;;;;;11.20;4.22;;;;;;;9.57;64.12;99818.66;5123168;27;20092;-75
2022/04/08 10:22:19;;;;;;;8.05;3.60;;;;;;;9.69;62.81;99811.34;5105146;27;20560;-75
2022/04/08 10:24:55;;;;;;;10.60;3.70;;;;;;;9.75;65.09;99813.72;5112966;27;20042;-75
2022/04/08 10:27:31;;;;;;;6.78;3.40;;;;;;;9.72;61.39;99808.63;5115473;27;20106;-75
2022/04/08 10:29:56;;;;;;;11.10;2.90;;;;;;;9.57;63.05;99799.59;5114580;28;20040;-75
2022/04/08 10:32:22;;;;;;;7.85;3.40;;;;;;;9.54;62.51;99810.13;5101228;28;20028;-75
2022/04/08 10:34:47;;;;;;;8.40;3.03;;;;;;;9.44;62.07;99803.53;5121517;27;20037;-75
2022/04/08 10:37:20;;;;;;;6.75;2.70;;;;;;;9.27;61.05;99809.34;5128561;27;20051;-75
2022/04/08 10:40:02;;;;;;;6.25;3.42;;;;;;;9.03;63.04;99800.63;5110443;28;20038;-75
2022/04/08 10:42:29;;;;;;;8.05;2.97;;;;;;;8.94;64.67;99795.75;5133828;27;20059;-76
2022/04/08 10:44:55;;;;;;;9.05;3.30;;;;;;;8.86;63.41;99801.16;5135599;27;20034;-75
2022/04/08 10:47:21;;;;;;;5.25;3.00;;;;;;;8.74;61.81;99799.84;5106045;27;20023;-74
2022/04/08 10:49:54;;;;;;;13.30;2.90;;;;;;;8.83;62.56;99807.34;5110348;27;20028;-75
2022/04/08 10:52:28;;;;;;;8.68;3.10;;;;;;;8.85;63.88;99805.53;5109089;28;20032;-74
2022/04/08 10:55:08;;;;;;;8.52;2.95;;;;;;;9.04;64.40;99794.53;5122560;27;20116;-75
2022/04/08 10:57:37;;;;;;;7.13;3.35;;;;;;;9.24;61.52;99804.25;5112208;28;20428;-74
2022/04/08 11:00:06;;;;;;;8.55;3.25;;;;;;;9.38;62.90;99809.81;5114976;28;20035;-75
2022/04/08 11:02:36;;;;;;;13.35;3.70;;;;;;;9.28;61.70;99809.28;5109930;28;20035;-75
2022/04/08 11:05:04;;;;;;;6.13;3.03;;;;;;;9.15;61.84;99802.78;5114661;28;20474;-74
2022/04/08 11:07:31;;;;;;;8.35;2.97;;;;;;;9.04;64.80;99789.31;5111021;28;20036;-74
2022/04/08 11:09:57;;;;;;;8.68;3.08;;;;;;;9.16;60.94;99782.88;5113093;27;20036;-75
2022/04/08 11:12:22;;;;;;;7.47;3.10;;;;;;;9.14;62.95;99780.31;5107906;28;20024;-75
2022/04/08 11:14:55;;;;;;;6.43;3.13;;;;;;;9.13;63.35;99773.41;5107974;28;20040;-75
2022/04/08 11:17:21;;;;;;;10.47;3.17;;;;;;;9.18;60.58;99776.69;5094640;28;20031;-75
2022/04/08 11:19:50;;;;;;;6.10;3.00;;;;;;;9.35;61.69;99773.50;5109364;27;20093;-75
2022/04/08 11:22:16;;;;;;;6.80;2.85;;;;;;;9.47;61.57;99767.00;5106916;27;20055;-74
2022/04/08 11:24:41;;;;;;;5.10;3.22;;;;;;;9.45;61.08;99774.00;5118767;27;20096;-74
2022/04/08 11:27:08;;;;;;;6.50;2.88;;;;;;;9.43;60.82;99766.28;5114392;28;20055;-75
2022/04/08 11:29:36;;;;;;;12.73;3.47;;;;;;;9.35;61.19;99757.88;5126578;27;20027;-74